Cuba, KS

1:34 PM CDT on August 28, 2015 (GMT -0500)
Rural Clifton | | Change Station
CLOSE
Current Station
Personal Weather Station
Location: Clifton, KS
Elevation: 1293 ft
Nearby Weather Stations

Elev 1293 ft 39.59 °N, 97.27 °W | Updated 10 minutes ago

Overcast
Overcast
77.2 °F
Feels Like 79 °F
N
9.8
Wind Variable Wind from WNW

Today
High -- | Low -- °F
--% Chance of Precip.
Yesterday
High -- | Low -- °F
Precip. -- in
6:53 AM 8:07 PM
Waxing Gibbous, 98% visible
Pressure 29.87 in
Visibility 10.0 miles
Clouds Overcast 2000 ft
Heat Index 79 °F
Dew Point 70 °F
Humidity 78%
Rainfall 0.30 in
Snow Depth Not available.
UV 3 out of 12
Pollen 4.80 out of 12
Air Quality Not available.
Flu Activity Not available.
METAR KCNK 281755Z AUTO 33009KT 10SM OVC020 24/21 A2991 RMK AO2 SLP113 T02440206 10256 20211 51009
Pressure 29.87 in
Visibility 10.0 miles
Clouds Overcast 2000 ft
Heat Index 79 °F
Dew Point 70 °F
Humidity 78%
Rainfall 0.30 in
Snow Depth Not available.
UV 3 out of 12
Pollen 4.80 out of 12
Air Quality Not available.
Flu Activity Not available.
METAR KCNK 281755Z AUTO 33009KT 10SM OVC020 24/21 A2991 RMK AO2 SLP113 T02440206 10256 20211 51009

10-Day Weather Forecast

×

Almanac

Astronomy

Aug. 28, 2015 Rise Set
Actual Time
Civil Twilight
Nautical Twilight
Astronomical Twilight
Moon
Length of Visible Light
Length of Day
Tomorrow will be .
, % of the Moon is Illuminated

Today's Extremes

State Highs State Lows

Community

WunderPhotos

Upload Photos

1,850,453 photos uploaded!

WunderBlogs® & News

Nearby

Air Quality

  Air Quality AQ Index Pollutant
Not available.

Snow Depth

Station Depth Elevation

Earthquake Activity

City Distance Mag. Time & Date
Minimum magnitude displayed is 2.5.

Coastal Water Temperatures

Place Temperature

Stations

Nearby Weather Stations

Station Location Temp. Windchill Dew Point Humidity Wind Precip. Elev Updated Type